AirNav   Pilot Hours Calculator
 
 1023 users online  

NA12 Johnson Airport
Turtle Lake, North Dakota, USA

GOING TO TURTLE LAKE?


FAA INFORMATION EFFECTIVE 01 DECEMBER 2022

Location

FAA Identifier: NA12
Lat/Long: 47-25-53.9880N 100-50-29.5010W
47-25.899800N 100-50.491683W
47.4316633,-100.8415281
(estimated)
Elevation: 1920 ft. / 585 m (estimated)
Variation: 10E (1985)
From city: 6 miles SE of TURTLE LAKE, ND
Time zone: UTC -6 (UTC -5 during Daylight Saving Time)
Zip code: 58559

Airport Operations

Airport use: Private use. Permission required prior to landing
Activation date: 01/1981
Control tower: no
ARTCC: MINNEAPOLIS CENTER
FSS: GRAND FORKS FLIGHT SERVICE STATION
Attendance: IREG
Wind indicator: no
Segmented circle: no

Airport Services

Runway Information

Runway 17/35

Dimensions: 1700 x 70 ft. / 518 x 21 m
Surface: turf
RUNWAY 17  RUNWAY 35
Traffic pattern: leftleft
Obstructions: none25 ft. trees, 50 ft. from runway

Airport Ownership and Management from official FAA records

Ownership: Privately-owned
Owner: ROGER JOHNSON
124 14TH AVE NW
TURTLE LAKE, ND 58575
Phone 701-448-2833
Manager: JOSEPH K JOHNSON
124 14TH AVE NW
TURTLE LAKE, ND 58575
Phone (701) 516-3826

Airport Operational Statistics

Aircraft based on the field: 1
Single engine airplanes: 1
    

Additional Remarks

FOR CD CTC MINNEAPOLIS ARTCC AT 651-463-5588.

Instrument Procedures

There are no published instrument procedures at NA12.

Some nearby airports with instrument procedures:

D05 - Garrison Municipal Airport (28 nm NW)
KHZE - Mercer County Regional Airport (31 nm W)
KBIS - Bismarck Municipal Airport (40 nm S)
Y19 - Mandan Regional Airport/Lawler Field (40 nm S)
5H4 - Harvey Municipal Airport (43 nm NE)
 
Loc | Ops | Rwys | IFR | FBO | Links
Com | Nav | Svcs | Stats | Notes

Bismarck Aero Center
AirBoss

 
Area around NA12 (Johnson Airport)
 
Road maps at: MapQuest Bing Google
 
Aerial photo
No photo
 
Sectional chart

 
Airport distance calculator
Flying to Johnson Airport? Find the distance to fly.

From to NA12

Sunrise and sunset
Times for 03-Dec-2022
 Local
(UTC-6)
 Zulu
(UTC)
Morning civil twilight07:3813:38
Sunrise08:1314:13
Sunset16:5322:53
Evening civil twilight17:2823:28

Current date and time
Zulu (UTC)  04-Dec-2022 00:59:51
Local (UTC-6)  03-Dec-2022 18:59:51
 
METAR
KN60 
27nm NW 
040052Z AUTO 00000KT M14/M17 A3007 RMK AO1 SLP233 T11441172
KHZE 
31nm W 
040055Z AUTO 00000KT 10SM CLR M18/M20 A3011 RMK AO2
KY19 
40nm S 
040055Z AUTO 18005KT 10SM CLR M12/M15 A3011 RMK AO2
KBIS 
40nm S 
040052Z AUTO 00000KT 10SM CLR M14/M18 A3013 RMK AO2 SLP248 T11391178
K5H4 
43nm NE 
040055Z AUTO 26006KT 10SM CLR M16/M16 A3010 RMK AO2
TAF
KBIS 
40nm S 
032046Z 0321/0418 26006KT P6SM SKC FM040000 24005KT P6SM SKC FM041400 23010KT P6SM SKC WS020/28040KT
NOTAMs
Click for the latest NOTAMs
NOTAMs are issued by the DoD/FAA and will open in a separate window not controlled by AirNav.

 

 
 

Would you like to see your business listed on this page?

 If your business provides an interesting product or service to pilots, flight crews, aircraft, or users of the Johnson Airport, you should consider listing it here.  To start the listing process, click on the button below
 
Add a business
 

Other Pages about Johnson Airport

Update a link
 
Copyright © AirNav, LLC. All rights reserved. Privacy Policy  Contact